Terminal Aerodrome Forecast
Issued by NWS

Home | Current Version | Previous Version | Text Only | Print | Product List | Glossary On
Versions: 1 2 3 4 5 6 7 8 9 10 11 12
617
FTUS43 KIND 271120
TAFLAF
TAF
KLAF 271120Z 2712/2812 23016G25KT P6SM VCSH OVC012
     FM271400 24017KT P6SM OVC012
     FM271800 24014KT P6SM OVC020
     FM280000 24010KT P6SM SCT030
     FM280300 22005KT P6SM SCT035
     FM280700 19004KT P6SM BKN070
      AMD LTD TO CLD VIS AND WIND TIL 271300=

USA.gov is the U.S. government's official web portal to all federal, state and local government web resources and services.